Latest Weather Observations for Friendly Beaches

IDT60801

Issued at 8:31 am EST Thursday 26 May 2016 (issued every 30 minutes, with the page automatically refreshed every 10 minutes)

About weather observations | Map of weather stations | Latest weather observations for TAS | Other Formats
Station Details ID: 092114 Name: FRIENDLY BEACHES Lat: -42.00 Lon: 148.28 Height: 55.0 m
Data from the previous 72 hours. | See also: Recent months at Friendly Beaches
Date/Time
EST
Temp
°C
App
Temp
°C
Dew
Point
Rel
Hum
%
Delta-T
°C
Wind Press
QNH
hPa
Press
MSL
hPa
Rain
since 9 am
mm
Dir
 
Spd
km/h
Gust
km/h
Spd
kts
Gust
kts
26/08:30am 10.2 9.0 9.7 97 0.3 WNW 6 7 3 4 1002.0 1002.0 7.6
26/08:00am 10.2 8.8 9.7 97 0.3 W 7 11 4 6 1002.0 1002.0 7.0
26/07:30am 9.9 7.7 9.4 97 0.2 W 11 17 6 9 1001.8 1001.8 5.6
26/07:00am 10.0 8.5 9.2 95 0.4 W 7 9 4 5 1001.6 1001.6 4.2
26/06:30am 10.5 9.3 9.4 93 0.6 S 6 7 3 4 1001.5 1001.5 3.6
26/06:00am 10.7 9.9 9.6 93 0.6 SSE 4 6 2 3 1001.5 1001.5 3.2
26/05:30am 10.7 10.6 9.5 92 0.6 CALM 0 2 0 1 1001.6 1001.6 2.2
26/05:00am 10.6 9.7 9.4 92 0.6 N 4 6 2 3 1001.7 1001.7 1.2
26/04:30am 10.8 9.3 9.2 90 0.8 NNE 7 9 4 5 1001.7 1001.7 1.0
26/04:00am 10.9 9.4 9.0 88 1.0 N 7 9 4 5 1001.6 1001.6 0.8
26/03:30am 11.2 9.3 9.1 87 1.0 N 9 11 5 6 1001.8 1001.8 0.6
26/03:00am 12.2 10.4 8.1 76 2.0 NNW 7 13 4 7 1001.9 1001.9 0.0
26/02:30am 12.7 10.4 7.4 70 2.6 N 9 15 5 8 1002.2 1002.2 0.0
26/02:00am 12.8 9.8 7.5 70 2.6 NNW 13 17 7 9 1002.4 1002.4 0.0
26/01:30am 12.8 10.1 7.5 70 2.6 N 11 17 6 9 1002.5 1002.5 0.0
26/01:00am 13.0 9.6 7.5 69 2.7 NNW 15 22 8 12 1002.8 1002.8 0.0
26/12:30am 12.7 10.4 7.4 70 2.6 N 9 15 5 8 1003.1 1003.1 0.0
26/12:00am 13.0 10.3 7.5 69 2.7 N 11 17 6 9 1003.3 1003.3 0.0
 
Date/Time
EST
Temp
°C
App
Temp
°C
Dew
Point
Rel
Hum
%
Delta-T
°C
Wind Press
QNH
hPa
Press
MSL
hPa
Rain
since 9 am
mm
Dir
 
Spd
km/h
Gust
km/h
Spd
kts
Gust
kts
25/11:30pm 11.6 9.7 7.5 76 2.0 N 7 11 4 6 1003.8 1003.8 0.0
25/11:00pm 12.0 9.8 7.9 76 2.0 N 9 13 5 7 1004.1 1004.1 0.0
25/10:30pm 11.7 8.7 7.8 77 1.9 NNE 13 20 7 11 1004.3 1004.3 0.0
25/10:00pm 12.8 10.0 7.0 68 2.8 N 11 19 6 10 1004.4 1004.4 0.0
25/09:30pm 12.4 9.0 7.5 72 2.4 N 15 24 8 13 1004.7 1004.7 0.0
25/09:00pm 11.9 8.0 7.0 72 2.4 N 17 28 9 15 1005.0 1005.0 0.0
25/08:30pm 11.3 7.6 6.2 71 2.4 N 15 24 8 13 1005.2 1005.2 0.0
25/08:00pm 10.2 7.1 5.4 72 2.2 NNE 11 15 6 8 1005.4 1005.4 0.0
25/07:30pm 10.1 6.7 6.1 76 1.9 NNE 13 17 7 9 1005.6 1005.6 0.0
25/07:00pm 10.1 7.1 5.9 75 1.9 NNE 11 17 6 9 1005.9 1005.9 0.0
25/06:30pm 9.6 6.2 4.2 69 2.4 NNE 11 17 6 9 1006.2 1006.2 0.0
25/06:00pm 9.4 5.6 1.6 58 3.3 NNE 11 17 6 9 1006.3 1006.3 0.0
25/05:30pm 10.0 7.0 4.0 66 2.7 N 9 17 5 9 1006.5 1006.5 0.0
25/05:00pm 8.7 7.0 3.9 72 2.1 NW 2 13 1 7 1006.7 1006.7 0.0
25/04:30pm 9.4 6.8 4.0 69 2.4 N 7 13 4 7 1006.8 1006.8 0.0
25/04:00pm 10.4 7.9 4.5 67 2.7 NNE 7 11 4 6 1006.9 1006.9 0.0
25/03:30pm 10.6 7.5 3.6 62 3.1 NNE 9 13 5 7 1007.3 1007.3 0.0
25/03:00pm 11.5 8.9 3.3 57 3.6 NNE 6 9 3 5 1007.7 1007.7 0.0
25/02:30pm 12.4 9.8 4.1 57 3.8 NNE 7 9 4 5 1007.8 1007.8 0.0
25/02:00pm 13.1 10.9 3.2 51 4.4 NNE 4 9 2 5 1008.3 1008.3 0.0
25/01:30pm 11.6 8.9 2.9 55 3.8 N 6 11 3 6 1008.6 1008.6 0.0
25/01:00pm 11.6 8.4 2.9 55 3.8 NNE 9 19 5 10 1008.4 1008.4 0.0
25/12:30pm 12.3 9.6 3.8 56 3.8 NNE 7 17 4 9 1008.9 1008.9 0.0
25/12:00pm 10.4 8.2 3.4 62 3.1 WNW 4 9 2 5 1010.0 1010.0 0.0
25/11:30am 10.4 8.1 2.7 59 3.3 NW 4 9 2 5 1010.6 1010.6 0.0
25/11:00am 10.3 8.4 2.7 59 3.3 SE 2 6 1 3 1011.2 1011.2 0.0
25/10:30am 9.3 7.1 3.1 65 2.7 WNW 4 6 2 3 1011.9 1011.9 0.0
25/10:00am 8.5 6.6 2.9 68 2.4 NNE 2 4 1 2 1012.4 1012.4 0.0
25/09:30am 6.5 4.2 2.9 78 1.5 N 4 9 2 5 1012.3 1012.3 0.0
25/09:00am 3.1 -0.8 1.0 86 0.8 WNW 11 15 6 8 1012.9 1012.9 0.2
25/08:30am 2.4 -2.0 0.1 85 0.9 WNW 13 17 7 9 1012.7 1012.7 0.2
25/08:00am 3.7 -0.3 0.2 78 1.3 WNW 11 13 6 7 1012.2 1012.2 0.2
25/07:30am 3.0 -1.0 0.4 83 1.0 WNW 11 13 6 7 1012.4 1012.4 0.2
25/07:00am 3.7 -0.6 0.9 82 1.1 WNW 13 15 7 8 1012.8 1012.8 0.2
25/06:30am 3.8 -0.5 1.0 82 1.1 WNW 13 15 7 8 1012.9 1012.9 0.2
25/06:00am 3.8 0.3 1.0 82 1.1 W 9 11 5 6 1013.2 1013.2 0.2
25/05:30am 4.3 0.4 1.2 80 1.2 WSW 11 15 6 8 1013.5 1013.5 0.2
25/05:00am 3.9 0.3 0.8 80 1.2 W 9 13 5 7 1013.5 1013.5 0.2
25/04:30am 4.3 0.4 1.2 80 1.2 W 11 15 6 8 1013.5 1013.5 0.2
25/04:00am 4.5 0.6 1.0 78 1.4 W 11 17 6 9 1013.0 1013.0 0.2
25/03:30am 5.1 1.2 1.0 75 1.6 W 11 17 6 9 1013.0 1013.0 0.2
25/03:00am 5.6 1.3 1.2 73 1.7 W 13 22 7 12 1013.5 1013.5 0.2
25/02:30am 5.1 1.2 1.0 75 1.6 W 11 20 6 11 1013.7 1013.7 0.2
25/02:00am 5.5 1.6 0.9 72 1.8 W 11 19 6 10 1013.9 1013.9 0.2
25/01:30am 5.6 1.3 1.0 72 1.8 W 13 19 7 10 1014.3 1014.3 0.2
25/01:00am 5.6 1.3 0.8 71 1.9 W 13 22 7 12 1014.2 1014.2 0.2
25/12:30am 5.9 1.2 0.9 70 2.0 W 15 26 8 14 1014.5 1014.5 0.2
25/12:00am 5.3 1.3 0.5 71 1.9 W 11 17 6 9 1014.7 1014.7 0.2
 
Date/Time
EST
Temp
°C
App
Temp
°C
Dew
Point
Rel
Hum
%
Delta-T
°C
Wind Press
QNH
hPa
Press
MSL
hPa
Rain
since 9 am
mm
Dir
 
Spd
km/h
Gust
km/h
Spd
kts
Gust
kts
24/11:30pm 5.9 1.8 -0.2 65 2.3 WSW 11 17 6 9 1015.0 1015.0 0.2
24/11:00pm 6.8 2.3 0.0 62 2.6 W 13 22 7 12 1015.3 1015.4 0.2
24/10:30pm 6.3 2.3 0.2 65 2.4 W 11 17 6 9 1015.3 1015.4 0.2
24/10:00pm 6.3 2.7 0.6 67 2.2 W 9 15 5 8 1015.2 1015.3 0.2
24/09:30pm 6.2 2.2 0.3 66 2.3 WNW 11 15 6 8 1015.3 1015.4 0.2
24/09:00pm 6.1 2.2 1.1 70 2.0 W 11 15 6 8 1015.3 1015.4 0.2
24/08:30pm 6.9 2.6 0.8 65 2.4 W 13 17 7 9 1015.3 1015.4 0.2
24/08:00pm 6.3 2.4 1.4 71 2.0 W 11 19 6 10 1015.2 1015.3 0.2
24/07:30pm 6.5 3.1 1.6 71 2.0 W 9 15 5 8 1015.1 1015.2 0.2
24/07:00pm 6.7 2.5 1.4 69 2.1 W 13 19 7 10 1014.9 1014.9 0.2
24/06:30pm 7.0 2.9 2.1 71 2.0 WSW 13 17 7 9 1014.7 1014.7 0.2
24/06:00pm 7.1 3.4 2.4 72 1.9 WSW 11 17 6 9 1014.5 1014.5 0.2
24/05:30pm 7.7 4.1 2.8 71 2.1 WSW 11 15 6 8 1014.2 1014.2 0.2
24/05:00pm 8.1 4.5 2.8 69 2.2 SW 11 15 6 8 1013.9 1013.9 0.2
24/04:30pm 8.8 4.8 2.6 65 2.6 WSW 13 20 7 11 1013.7 1013.7 0.2
24/04:00pm 9.4 4.0 2.5 62 2.9 SW 20 35 11 19 1013.6 1013.6 0.2
24/03:30pm 9.8 4.8 3.5 65 2.7 SW 19 30 10 16 1013.6 1013.6 0.2
24/03:00pm 9.5 3.6 3.7 67 2.5 SW 24 43 13 23 1013.4 1013.4 0.2
24/02:30pm 10.3 3.4 4.5 67 2.6 SW 30 56 16 30 1013.3 1013.3 0.0
24/02:28pm 11.6 4.7 2.6 54 3.9 SW 28 48 15 26 1013.3 1013.3 0.0
24/02:00pm 10.9 5.7 2.5 56 3.6 SW 19 32 10 17 1012.9 1012.9 0.0
24/01:30pm 10.6 5.4 3.6 62 3.1 SW 20 39 11 21 1012.9 1012.9 0.0
24/01:00pm 11.1 3.9 2.9 57 3.6 SSW 30 54 16 29 1012.6 1012.6 0.0
24/12:51pm 11.7 4.6 3.7 58 3.6 SSW 30 54 16 29 1012.8 1012.8 0.0
24/12:30pm 11.1 4.8 3.9 61 3.2 SSW 26 48 14 26 1012.7 1012.7 0.0
24/12:12pm 11.7 4.3 1.6 50 4.3 SW 30 52 16 28 1012.6 1012.6 0.0
24/12:00pm 11.3 4.2 1.5 51 4.1 SW 28 46 15 25 1012.5 1012.5 0.0
24/11:38am 11.4 4.0 1.6 51 4.2 SSW 30 54 16 29 1012.6 1012.6 0.0
24/11:30am 11.9 5.2 1.5 49 4.4 SW 26 44 14 24 1012.6 1012.6 0.0
24/11:00am 11.6 6.3 1.8 51 4.2 SW 19 39 10 21 1012.8 1012.8 0.0
24/10:30am 10.8 5.4 2.6 57 3.5 WSW 20 39 11 21 1012.8 1012.8 0.0
24/10:00am 9.9 4.5 2.7 61 3.1 WSW 20 35 11 19 1012.8 1012.8 0.0
24/09:30am 9.4 4.2 2.5 62 2.9 WSW 19 32 10 17 1012.6 1012.6 0.0
24/09:00am 8.9 3.2 2.7 65 2.6 WSW 22 35 12 19 1012.5 1012.5 2.2
24/08:30am 8.5 2.7 2.5 66 2.5 WSW 22 39 12 21 1011.9 1011.9 2.2
24/08:00am 8.2 2.8 2.4 67 2.4 WSW 20 35 11 19 1011.5 1011.5 2.2
24/07:30am 8.0 2.6 2.5 68 2.3 WSW 20 33 11 18 1011.2 1011.2 2.2
24/07:00am 8.3 2.5 2.5 67 2.4 WSW 22 35 12 19 1010.9 1010.9 2.2
24/06:30am 8.2 2.4 2.4 67 2.4 WSW 22 37 12 20 1010.7 1010.7 2.2
24/06:00am 8.6 2.0 2.2 64 2.7 WSW 26 39 14 21 1010.5 1010.5 2.2
24/05:30am 8.5 2.7 2.1 64 2.7 WSW 22 33 12 18 1010.5 1010.5 2.2
24/05:00am 8.3 2.5 2.1 65 2.6 WSW 22 30 12 16 1010.2 1010.2 2.2
24/04:30am 8.2 3.4 2.4 67 2.4 WSW 17 24 9 13 1010.3 1010.3 2.2
24/04:00am 8.5 3.7 2.7 67 2.5 WSW 17 28 9 15 1010.1 1010.1 2.2
24/03:30am 8.6 3.2 2.4 65 2.6 WSW 20 37 11 20 1009.9 1009.9 2.2
24/03:00am 8.3 3.2 2.8 68 2.3 W 19 30 10 16 1010.0 1010.0 2.2
24/02:30am 7.9 3.4 2.4 68 2.3 WSW 15 22 8 12 1010.1 1010.1 2.2
24/02:00am 7.2 3.0 1.7 68 2.2 SW 13 19 7 10 1010.1 1010.1 2.2
24/01:30am 7.9 3.3 1.5 64 2.6 SW 15 20 8 11 1010.2 1010.2 2.2
24/01:00am 8.3 2.9 1.5 62 2.8 WSW 19 32 10 17 1010.2 1010.2 2.2
24/12:30am 8.3 2.9 1.5 62 2.8 WSW 19 32 10 17 1010.0 1010.0 2.2
24/12:00am 8.4 3.1 1.6 62 2.8 SW 19 35 10 19 1010.0 1010.0 2.2
 
Date/Time
EST
Temp
°C
App
Temp
°C
Dew
Point
Rel
Hum
%
Delta-T
°C
Wind Press
QNH
hPa
Press
MSL
hPa
Rain
since 9 am
mm
Dir
 
Spd
km/h
Gust
km/h
Spd
kts
Gust
kts
23/11:30pm 8.6 2.3 1.7 62 2.9 WSW 24 41 13 22 1009.9 1009.9 2.2
23/11:00pm 8.6 2.8 2.2 64 2.7 WSW 22 41 12 22 1009.5 1009.5 2.2
23/10:30pm 8.5 2.3 2.1 64 2.7 WSW 24 35 13 19 1009.2 1009.2 2.2
23/10:00pm 8.6 3.2 2.2 64 2.7 WSW 20 37 11 20 1009.3 1009.3 2.2
23/09:30pm 8.9 2.8 2.9 66 2.6 WSW 24 43 13 23 1009.0 1009.0 2.2
23/09:00pm 9.2 3.1 3.0 65 2.7 WSW 24 37 13 20 1008.7 1008.7 2.2
23/08:30pm 9.2 2.8 3.0 65 2.7 WSW 26 43 14 23 1008.2 1008.2 2.2
23/08:00pm 9.5 3.4 2.8 63 2.9 WSW 24 39 13 21 1007.8 1007.8 2.2
23/07:30pm 9.6 2.7 2.7 62 2.9 WSW 28 44 15 24 1007.2 1007.2 2.2
23/07:00pm 9.7 3.2 2.8 62 3.0 WSW 26 44 14 24 1006.9 1006.9 2.2
23/06:30pm 9.9 3.4 2.7 61 3.1 WSW 26 44 14 24 1006.4 1006.4 2.2
23/06:00pm 10.0 3.5 2.8 61 3.1 WSW 26 44 14 24 1005.9 1005.9 2.2
23/05:42pm 10.2 3.4 3.0 61 3.1 WSW 28 50 15 27 1005.4 1005.4 2.2
23/05:30pm 10.3 3.1 3.1 61 3.1 WSW 30 44 16 24 1005.2 1005.2 2.2
23/05:07pm 10.6 3.8 3.2 60 3.2 WSW 28 50 15 27 1004.7 1004.7 2.2
23/05:00pm 10.7 3.9 3.3 60 3.3 WSW 28 46 15 25 1004.7 1004.7 2.2
23/04:30pm 10.9 5.0 3.7 61 3.2 W 24 39 13 21 1004.1 1004.1 2.2
23/04:00pm 11.3 5.5 4.3 62 3.2 WSW 24 43 13 23 1003.9 1003.9 2.2
23/03:30pm 11.2 6.5 5.3 67 2.7 WSW 19 30 10 16 1003.5 1003.5 2.2
23/03:00pm 11.5 6.7 5.6 67 2.8 WSW 20 35 11 19 1003.5 1003.5 2.2
23/02:30pm 11.5 6.9 6.4 71 2.4 WSW 20 33 11 18 1003.1 1003.1 2.2
23/02:00pm 11.4 7.0 6.7 73 2.2 WSW 19 32 10 17 1002.5 1002.5 2.2
23/01:30pm 11.1 7.0 7.8 80 1.6 WSW 19 32 10 17 1002.3 1002.3 2.2
23/01:00pm 11.3 7.5 8.9 85 1.2 WSW 19 33 10 18 1002.1 1002.1 2.2
23/12:30pm 10.6 7.5 8.7 88 0.9 WSW 15 26 8 14 1002.0 1002.0 2.0
23/12:00pm 11.2 9.2 10.0 92 0.6 W 11 19 6 10 1002.0 1002.0 1.6
23/11:30am 13.5 10.7 8.6 72 2.5 WNW 13 26 7 14 1001.8 1001.8 0.0
23/11:00am 14.3 12.2 8.3 67 3.0 W 9 15 5 8 1002.1 1002.1 0.0
23/10:30am 13.8 11.4 8.8 72 2.5 WNW 11 28 6 15 1002.5 1002.5 0.0
23/10:00am 13.0 10.4 7.7 70 2.6 WNW 11 20 6 11 1003.0 1003.0 0.0
23/09:30am 12.8 8.6 7.5 70 2.6 WNW 19 32 10 17 1003.8 1003.8 0.0
23/09:00am 11.7 9.7 8.6 81 1.5 WNW 9 15 5 8 1003.0 1003.0 0.6

Other Formats:

Comma delimited format used in spreadsheet applications
http://www.bom.gov.au/fwo/IDT60801/IDT60801.94987.axf

JavaScript Object Notation format (JSON) in row-major order
http://www.bom.gov.au/fwo/IDT60801/IDT60801.94987.json